createdAt,value
2023-01-31T00:03:12.744Z,15.8
2023-01-31T00:08:36.051Z,15.7
2023-01-31T00:13:59.170Z,15.7
2023-01-31T00:19:21.910Z,15.6
2023-01-31T00:24:46.075Z,15.4
2023-01-31T00:30:09.884Z,15.4
2023-01-31T00:35:33.274Z,15.4
2023-01-31T00:40:40.334Z,15.4
2023-01-31T00:45:47.271Z,15.4
2023-01-31T00:51:10.940Z,15.3
2023-01-31T00:56:33.927Z,15.3
2023-01-31T01:01:58.117Z,15.3
2023-01-31T01:07:21.123Z,15.3
2023-01-31T01:12:44.861Z,15.1
2023-01-31T01:18:08.792Z,15.1
2023-01-31T01:23:32.003Z,15.1
2023-01-31T01:28:56.146Z,15
2023-01-31T01:34:03.607Z,15
2023-01-31T01:39:27.691Z,15.1
2023-01-31T01:44:35.537Z,14.9
2023-01-31T01:49:44.515Z,14.9
2023-01-31T01:54:52.723Z,14.9
2023-01-31T02:00:14.821Z,14.8
2023-01-31T02:05:37.381Z,14.8
2023-01-31T02:11:00.353Z,14.8
2023-01-31T02:16:24.563Z,14.8
2023-01-31T02:21:16.106Z,14.8
2023-01-31T02:26:38.344Z,14.8
2023-01-31T02:32:01.813Z,14.7
2023-01-31T02:37:24.401Z,14.8
2023-01-31T02:42:30.882Z,14.6
2023-01-31T02:47:53.969Z,14.6
2023-01-31T02:53:16.593Z,14.6
2023-01-31T02:58:39.835Z,14.6
2023-01-31T03:04:03.710Z,14.6
2023-01-31T03:09:26.840Z,14.6
2023-01-31T03:14:49.400Z,14.5
2023-01-31T03:19:57.227Z,14.6
2023-01-31T03:25:04.487Z,14.6
2023-01-31T03:30:28.268Z,14.6
2023-01-31T03:35:51.612Z,14.6
2023-01-31T03:41:15.061Z,14.5
2023-01-31T03:46:39.328Z,14.6
2023-01-31T03:52:01.398Z,14.6
2023-01-31T03:57:24.200Z,14.4
2023-01-31T04:02:32.577Z,14.5
2023-01-31T04:07:55.441Z,14.4
2023-01-31T04:13:03.415Z,14.3
2023-01-31T04:18:27.212Z,14.4
2023-01-31T04:23:49.934Z,14.4
2023-01-31T04:29:13.519Z,14.4
2023-01-31T04:34:36.983Z,14.3
2023-01-31T04:40:00.388Z,14.1
2023-01-31T04:45:23.595Z,14.3
2023-01-31T04:50:46.882Z,14.3
2023-01-31T04:56:10.324Z,14.3
2023-01-31T05:01:33.584Z,14.3
2023-01-31T05:06:42.951Z,14.3
2023-01-31T05:12:06.436Z,14.3
2023-01-31T05:17:29.465Z,14.3
2023-01-31T05:22:52.630Z,14.3
2023-01-31T05:28:20.019Z,14.3
2023-01-31T05:33:46.867Z,14.3
2023-01-31T05:39:10.366Z,14.2
2023-01-31T05:44:33.414Z,14.3
2023-01-31T05:49:40.397Z,14.2
2023-01-31T05:55:03.971Z,14.3
2023-01-31T06:00:11.620Z,14.3
2023-01-31T06:05:20.464Z,14.3
2023-01-31T06:10:43.663Z,14.3
2023-01-31T06:16:07.293Z,14.2
2023-01-31T06:21:15.356Z,14.3
2023-01-31T06:26:38.614Z,14.3
2023-01-31T06:32:02.092Z,14.3
2023-01-31T06:37:38.727Z,14.3
2023-01-31T06:42:47.163Z,14.3
2023-01-31T06:47:56.151Z,14.2
2023-01-31T06:53:18.735Z,14
2023-01-31T06:58:42.633Z,13.9
2023-01-31T07:04:05.630Z,14
2023-01-31T07:09:28.806Z,14.1
2023-01-31T07:14:51.978Z,14.1
2023-01-31T07:20:14.806Z,14
2023-01-31T07:25:38.757Z,13.9
2023-01-31T07:37:22.784Z,13.8
2023-01-31T07:42:46.478Z,13.9
2023-01-31T07:48:38.944Z,13.9
2023-01-31T07:54:02.445Z,13.9
2023-01-31T07:59:25.777Z,13.8
2023-01-31T08:04:56.692Z,13.6
2023-01-31T08:10:19.674Z,13.7
2023-01-31T08:15:42.461Z,13.9
2023-01-31T08:21:05.728Z,13.9
2023-01-31T08:26:29.400Z,13.9
2023-01-31T08:32:07.663Z,13.8
2023-01-31T08:37:33.639Z,13.9
2023-01-31T08:43:07.267Z,13.9
2023-01-31T08:48:45.654Z,13.8
2023-01-31T08:54:05.412Z,13.8
2023-01-31T08:59:41.338Z,13.6
2023-01-31T09:05:05.178Z,13.7
2023-01-31T09:10:28.881Z,13.7
2023-01-31T09:15:51.403Z,13.7
2023-01-31T09:20:59.102Z,13.8
2023-01-31T09:26:38.075Z,13.8
2023-01-31T09:32:02.062Z,13.8
2023-01-31T09:37:25.042Z,13.8
2023-01-31T09:42:48.322Z,13.8
2023-01-31T09:48:11.976Z,13.9
2023-01-31T09:53:35.562Z,13.9
2023-01-31T09:58:59.810Z,13.8
2023-01-31T10:04:23.718Z,13.8
2023-01-31T10:09:31.772Z,13.9
2023-01-31T10:14:40.909Z,13.8
2023-01-31T10:19:49.157Z,13.8
2023-01-31T10:24:58.299Z,13.9
2023-01-31T10:30:08.430Z,13.9
2023-01-31T10:35:15.260Z,13.8
2023-01-31T10:40:39.979Z,13.6
2023-01-31T10:46:02.778Z,13.6
2023-01-31T10:51:27.025Z,13.6
2023-01-31T10:56:51.016Z,13.7
2023-01-31T11:02:13.503Z,13.8
2023-01-31T11:07:20.824Z,13.8
2023-01-31T11:12:44.059Z,13.8
2023-01-31T11:18:06.691Z,13.8
2023-01-31T11:23:29.328Z,13.8
2023-01-31T11:28:52.242Z,13.8
2023-01-31T11:34:15.254Z,13.7
2023-01-31T11:39:22.011Z,13.6
2023-01-31T11:44:44.898Z,13.6
2023-01-31T11:50:07.541Z,13.6
2023-01-31T11:55:34.040Z,13.7
2023-01-31T12:00:57.307Z,13.8
2023-01-31T12:06:34.299Z,13.8
2023-01-31T12:11:56.882Z,13.7
2023-01-31T12:17:29.996Z,13.7
2023-01-31T12:22:57.731Z,13.7
2023-01-31T12:28:20.728Z,13.8
2023-01-31T12:33:43.881Z,13.7
2023-01-31T12:39:21.532Z,13.8
2023-01-31T12:44:53.211Z,14
2023-01-31T12:50:31.547Z,14
2023-01-31T12:55:54.999Z,13.9
2023-01-31T13:01:31.073Z,14
2023-01-31T13:06:55.041Z,14.1
2023-01-31T13:12:30.410Z,14
2023-01-31T13:17:37.990Z,13.9
2023-01-31T13:23:00.937Z,13.8
2023-01-31T13:28:23.875Z,13.7
2023-01-31T13:33:47.250Z,13.6
2023-01-31T13:39:10.358Z,13.4
2023-01-31T13:44:17.585Z,13.3
2023-01-31T13:49:41.316Z,13.1
2023-01-31T13:55:07.492Z,13.1
2023-01-31T14:00:17.272Z,12.9
2023-01-31T14:05:39.993Z,12.8
2023-01-31T14:11:03.980Z,12.7
2023-01-31T14:16:27.860Z,12.5
2023-01-31T14:21:50.823Z,12.5
2023-01-31T14:27:13.394Z,12.4
2023-01-31T14:32:39.187Z,12.4
2023-01-31T14:38:01.365Z,12.3
2023-01-31T14:43:24.569Z,12.3
2023-01-31T14:48:51.812Z,12.1
2023-01-31T14:54:14.116Z,12
2023-01-31T14:59:36.925Z,11.9
2023-01-31T15:04:59.277Z,12
2023-01-31T15:10:22.430Z,12.1
2023-01-31T15:16:06.549Z,28.3
2023-01-31T15:21:46.500Z,35.1
2023-01-31T15:27:09.300Z,37.6
2023-01-31T15:32:32.730Z,39.1
2023-01-31T15:37:39.993Z,39.5
2023-01-31T15:43:02.895Z,44.3
2023-01-31T15:48:26.156Z,46.1
2023-01-31T15:54:08.094Z,45.5
2023-01-31T15:59:32.351Z,43.8
2023-01-31T16:04:55.427Z,41.8
2023-01-31T16:09:52.584Z,41.6
2023-01-31T16:15:15.444Z,43.3
2023-01-31T16:20:38.419Z,44.3
2023-01-31T16:26:01.481Z,46.1
2023-01-31T16:31:25.555Z,46.6
2023-01-31T16:36:47.986Z,45.4
2023-01-31T16:42:10.358Z,44.6
2023-01-31T16:47:32.878Z,45
2023-01-31T16:53:12.034Z,44.9
2023-01-31T16:58:34.969Z,42.3
2023-01-31T17:03:58.852Z,44.8
2023-01-31T17:09:09.287Z,40.5
2023-01-31T17:14:31.669Z,44
2023-01-31T17:20:00.716Z,38.3
2023-01-31T17:25:35.889Z,40.3
2023-01-31T17:31:02.349Z,43.6
2023-01-31T17:36:27.668Z,42
2023-01-31T17:42:07.056Z,39.9
2023-01-31T17:47:23.917Z,43.3
2023-01-31T17:52:48.726Z,40.9
2023-01-31T17:58:27.868Z,42.8
2023-01-31T18:04:07.615Z,43.4
2023-01-31T18:09:44.905Z,40.4
2023-01-31T18:15:17.687Z,40.2
2023-01-31T18:20:55.687Z,40.1
2023-01-31T18:26:25.775Z,43.7
2023-01-31T18:31:59.860Z,36.7
2023-01-31T18:38:15.063Z,37.3
2023-01-31T18:43:31.680Z,38.4
2023-01-31T18:49:09.704Z,38.5
2023-01-31T18:54:43.166Z,42.6
2023-01-31T19:00:22.797Z,40.9
2023-01-31T19:05:41.343Z,41.6
2023-01-31T19:10:46.028Z,44.6
2023-01-31T19:15:52.949Z,42.1
2023-01-31T19:21:29.717Z,40.9
2023-01-31T19:26:52.361Z,43.5
2023-01-31T19:32:28.114Z,39.3
2023-01-31T19:38:06.569Z,41.6
2023-01-31T19:43:41.580Z,39.5
2023-01-31T19:49:26.841Z,41.8
2023-01-31T19:54:47.521Z,38.5
2023-01-31T19:59:57.197Z,39.5
2023-01-31T20:05:04.678Z,42.1
2023-01-31T20:10:28.186Z,43.9
2023-01-31T20:15:36.877Z,38.9
2023-01-31T20:20:46.113Z,41.7
2023-01-31T20:26:09.339Z,38.2
2023-01-31T20:31:32.391Z,39.3
2023-01-31T20:36:24.150Z,38.6
2023-01-31T20:41:47.645Z,41
2023-01-31T20:46:55.247Z,35.2
2023-01-31T20:52:04.445Z,35.5
2023-01-31T20:57:12.158Z,36.1
2023-01-31T21:02:35.000Z,35.8
2023-01-31T21:07:26.656Z,34.6
2023-01-31T21:12:49.945Z,33.3
2023-01-31T21:18:22.270Z,31.6
2023-01-31T21:23:45.587Z,29.9
2023-01-31T21:28:53.343Z,28.6
2023-01-31T21:34:17.928Z,27.6
2023-01-31T21:39:39.967Z,26.8
2023-01-31T21:44:47.343Z,26.1
2023-01-31T21:50:13.146Z,25.5
2023-01-31T21:55:20.644Z,25.1
2023-01-31T22:00:43.912Z,24.8
2023-01-31T22:05:51.582Z,24.5
2023-01-31T22:10:59.251Z,24.3
2023-01-31T22:16:24.502Z,22.3
2023-01-31T22:21:47.967Z,21.1
2023-01-31T22:27:10.868Z,20.3
2023-01-31T22:32:48.142Z,19.8
2023-01-31T22:38:11.129Z,19.6
2023-01-31T22:43:35.314Z,19.2
2023-01-31T22:48:58.700Z,18.8
2023-01-31T22:54:21.663Z,18.3
2023-01-31T22:59:44.011Z,17.9
2023-01-31T23:05:07.323Z,17.5
2023-01-31T23:10:14.184Z,17.2
2023-01-31T23:15:20.826Z,17.2
2023-01-31T23:20:28.311Z,17.1
2023-01-31T23:25:51.314Z,16.8
2023-01-31T23:31:15.008Z,16.5
2023-01-31T23:36:23.242Z,16.3
2023-01-31T23:41:30.377Z,16.1
2023-01-31T23:46:53.174Z,15.8
2023-01-31T23:52:15.610Z,15.8
2023-01-31T23:57:39.433Z,15.9
